sensor_id;sensor_type;location;lat;lon;timestamp;P1;durP1;ratioP1;P2;durP2;ratioP2
34521;SDS011;25561;48.888;8.736;2023-02-28T06:49:52;15.85;;;7.57;;
34521;SDS011;25561;48.888;8.736;2023-02-28T06:52:54;18.42;;;8.10;;
34521;SDS011;25561;48.888;8.736;2023-02-28T06:55:56;16.23;;;7.82;;
34521;SDS011;25561;48.888;8.736;2023-02-28T06:58:59;16.20;;;7.50;;
34521;SDS011;25561;48.888;8.736;2023-02-28T07:02:01;17.58;;;7.97;;
34521;SDS011;25561;48.888;8.736;2023-02-28T07:05:04;17.33;;;8.25;;
34521;SDS011;25561;48.888;8.736;2023-02-28T07:08:07;18.83;;;8.18;;
34521;SDS011;25561;48.888;8.736;2023-02-28T07:11:11;16.75;;;8.18;;
34521;SDS011;25561;48.888;8.736;2023-02-28T07:14:17;18.88;;;7.95;;
34521;SDS011;25561;48.888;8.736;2023-02-28T07:17:19;19.85;;;8.68;;
34521;SDS011;25561;48.888;8.736;2023-02-28T07:20:22;16.15;;;8.50;;
34521;SDS011;25561;48.888;8.736;2023-02-28T07:23:24;15.27;;;8.27;;
34521;SDS011;25561;48.888;8.736;2023-02-28T07:26:26;22.05;;;8.73;;
34521;SDS011;25561;48.888;8.736;2023-02-28T07:29:28;25.55;;;8.88;;
34521;SDS011;25561;48.888;8.736;2023-02-28T07:32:30;19.77;;;9.00;;
34521;SDS011;25561;48.888;8.736;2023-02-28T07:35:32;15.80;;;7.82;;
34521;SDS011;25561;48.888;8.736;2023-02-28T07:38:35;17.40;;;7.53;;
34521;SDS011;25561;48.888;8.736;2023-02-28T07:41:38;16.15;;;7.75;;
34521;SDS011;25561;48.888;8.736;2023-02-28T07:44:44;16.08;;;8.13;;
34521;SDS011;25561;48.888;8.736;2023-02-28T07:47:48;17.15;;;8.48;;
34521;SDS011;25561;48.888;8.736;2023-02-28T07:50:56;20.08;;;8.43;;
34521;SDS011;25561;48.888;8.736;2023-02-28T07:53:59;16.80;;;7.35;;
34521;SDS011;25561;48.888;8.736;2023-02-28T07:57:01;19.70;;;8.60;;
34521;SDS011;25561;48.888;8.736;2023-02-28T08:00:04;17.42;;;7.65;;
34521;SDS011;25561;48.888;8.736;2023-02-28T08:03:13;24.85;;;8.85;;
34521;SDS011;25561;48.888;8.736;2023-02-28T08:06:17;19.85;;;8.90;;
34521;SDS011;25561;48.888;8.736;2023-02-28T08:09:21;16.52;;;8.10;;
34521;SDS011;25561;48.888;8.736;2023-02-28T08:12:23;18.58;;;9.25;;
34521;SDS011;25561;48.888;8.736;2023-02-28T08:15:25;17.90;;;8.73;;
34521;SDS011;25561;48.888;8.736;2023-02-28T08:18:28;17.38;;;8.10;;
34521;SDS011;25561;48.888;8.736;2023-02-28T08:21:30;18.42;;;8.45;;
34521;SDS011;25561;48.888;8.736;2023-02-28T08:24:34;24.48;;;8.00;;
34521;SDS011;25561;48.888;8.736;2023-02-28T08:27:35;21.60;;;8.57;;
34521;SDS011;25561;48.888;8.736;2023-02-28T08:30:38;18.23;;;9.20;;
34521;SDS011;25561;48.888;8.736;2023-02-28T08:33:42;20.27;;;10.20;;
34521;SDS011;25561;48.888;8.736;2023-02-28T08:36:45;17.73;;;8.68;;
34521;SDS011;25561;48.888;8.736;2023-02-28T08:39:48;19.25;;;8.40;;
34521;SDS011;25561;48.888;8.736;2023-02-28T08:42:49;20.30;;;9.60;;
34521;SDS011;25561;48.888;8.736;2023-02-28T08:45:52;19.85;;;9.60;;
34521;SDS011;25561;48.888;8.736;2023-02-28T08:48:55;20.25;;;9.23;;
34521;SDS011;25561;48.888;8.736;2023-02-28T08:52:02;22.48;;;10.68;;
34521;SDS011;25561;48.888;8.736;2023-02-28T08:55:05;21.10;;;9.63;;
34521;SDS011;25561;48.888;8.736;2023-02-28T08:58:07;23.70;;;9.93;;
34521;SDS011;25561;48.888;8.736;2023-02-28T09:01:22;22.92;;;8.82;;
34521;SDS011;25561;48.888;8.736;2023-02-28T09:04:29;18.20;;;9.95;;
34521;SDS011;25561;48.888;8.736;2023-02-28T09:07:32;19.83;;;9.85;;
34521;SDS011;25561;48.888;8.736;2023-02-28T09:10:35;22.30;;;9.30;;
34521;SDS011;25561;48.888;8.736;2023-02-28T09:13:42;28.42;;;10.13;;
34521;SDS011;25561;48.888;8.736;2023-02-28T09:16:54;24.08;;;10.32;;
34521;SDS011;25561;48.888;8.736;2023-02-28T09:20:03;23.85;;;11.13;;
34521;SDS011;25561;48.888;8.736;2023-02-28T09:23:21;21.70;;;10.52;;
34521;SDS011;25561;48.888;8.736;2023-02-28T09:26:43;18.25;;;9.93;;
34521;SDS011;25561;48.888;8.736;2023-02-28T09:30:05;18.02;;;9.63;;
34521;SDS011;25561;48.888;8.736;2023-02-28T09:33:12;19.40;;;10.23;;
34521;SDS011;25561;48.888;8.736;2023-02-28T09:36:18;18.88;;;10.60;;
34521;SDS011;25561;48.888;8.736;2023-02-28T09:39:46;25.60;;;10.45;;
34521;SDS011;25561;48.888;8.736;2023-02-28T09:42:56;26.02;;;10.40;;
34521;SDS011;25561;48.888;8.736;2023-02-28T09:49:41;20.00;;;10.55;;
34521;SDS011;25561;48.888;8.736;2023-02-28T09:52:48;23.10;;;11.02;;
34521;SDS011;25561;48.888;8.736;2023-02-28T09:56:38;21.80;;;11.05;;
34521;SDS011;25561;48.888;8.736;2023-02-28T09:59:39;19.95;;;10.30;;
34521;SDS011;25561;48.888;8.736;2023-02-28T10:05:57;24.48;;;10.68;;
34521;SDS011;25561;48.888;8.736;2023-02-28T10:09:26;24.27;;;10.18;;
34521;SDS011;25561;48.888;8.736;2023-02-28T10:12:44;22.58;;;10.80;;
34521;SDS011;25561;48.888;8.736;2023-02-28T10:15:50;20.27;;;10.00;;
34521;SDS011;25561;48.888;8.736;2023-02-28T10:18:57;21.30;;;11.07;;
34521;SDS011;25561;48.888;8.736;2023-02-28T10:25:31;21.98;;;11.95;;
34521;SDS011;25561;48.888;8.736;2023-02-28T10:28:32;26.38;;;10.60;;
34521;SDS011;25561;48.888;8.736;2023-02-28T10:31:34;22.58;;;11.10;;
34521;SDS011;25561;48.888;8.736;2023-02-28T10:34:37;30.80;;;11.05;;
34521;SDS011;25561;48.888;8.736;2023-02-28T10:37:43;23.02;;;10.88;;
34521;SDS011;25561;48.888;8.736;2023-02-28T10:40:49;21.27;;;11.20;;
34521;SDS011;25561;48.888;8.736;2023-02-28T10:43:53;21.13;;;10.95;;
34521;SDS011;25561;48.888;8.736;2023-02-28T10:47:24;36.08;;;11.85;;
34521;SDS011;25561;48.888;8.736;2023-02-28T10:50:44;24.95;;;11.70;;
34521;SDS011;25561;48.888;8.736;2023-02-28T10:57:23;26.45;;;11.70;;
34521;SDS011;25561;48.888;8.736;2023-02-28T11:00:31;22.55;;;11.18;;
34521;SDS011;25561;48.888;8.736;2023-02-28T11:03:36;23.40;;;10.80;;
34521;SDS011;25561;48.888;8.736;2023-02-28T11:06:39;21.13;;;11.15;;
34521;SDS011;25561;48.888;8.736;2023-02-28T11:09:41;24.95;;;10.57;;
34521;SDS011;25561;48.888;8.736;2023-02-28T11:12:46;29.27;;;11.65;;
34521;SDS011;25561;48.888;8.736;2023-02-28T11:15:57;23.35;;;11.02;;
34521;SDS011;25561;48.888;8.736;2023-02-28T11:19:01;22.70;;;10.70;;
34521;SDS011;25561;48.888;8.736;2023-02-28T11:22:04;26.27;;;11.15;;
34521;SDS011;25561;48.888;8.736;2023-02-28T11:25:08;27.58;;;11.70;;
34521;SDS011;25561;48.888;8.736;2023-02-28T11:28:25;18.92;;;11.15;;
34521;SDS011;25561;48.888;8.736;2023-02-28T11:31:29;19.17;;;10.63;;
34521;SDS011;25561;48.888;8.736;2023-02-28T11:34:33;24.55;;;11.85;;
34521;SDS011;25561;48.888;8.736;2023-02-28T11:37:37;21.77;;;11.32;;
34521;SDS011;25561;48.888;8.736;2023-02-28T11:44:03;23.08;;;12.10;;
34521;SDS011;25561;48.888;8.736;2023-02-28T11:50:40;18.60;;;9.65;;
34521;SDS011;25561;48.888;8.736;2023-02-28T11:54:18;22.23;;;12.15;;
34521;SDS011;25561;48.888;8.736;2023-02-28T11:58:02;27.65;;;11.88;;
34521;SDS011;25561;48.888;8.736;2023-02-28T12:07:39;22.00;;;10.88;;
34521;SDS011;25561;48.888;8.736;2023-02-28T12:15:17;23.13;;;11.15;;
34521;SDS011;25561;48.888;8.736;2023-02-28T12:18:32;27.77;;;11.45;;
34521;SDS011;25561;48.888;8.736;2023-02-28T12:25:28;20.40;;;10.63;;
34521;SDS011;25561;48.888;8.736;2023-02-28T12:28:56;21.77;;;11.40;;
34521;SDS011;25561;48.888;8.736;2023-02-28T12:32:26;24.77;;;10.75;;
34521;SDS011;25561;48.888;8.736;2023-02-28T12:39:01;22.10;;;11.10;;
34521;SDS011;25561;48.888;8.736;2023-02-28T12:42:17;25.10;;;10.95;;
34521;SDS011;25561;48.888;8.736;2023-02-28T12:49:08;19.30;;;10.73;;
34521;SDS011;25561;48.888;8.736;2023-02-28T12:52:44;23.00;;;11.48;;
34521;SDS011;25561;48.888;8.736;2023-02-28T12:59:03;18.40;;;10.07;;
34521;SDS011;25561;48.888;8.736;2023-02-28T13:02:10;20.85;;;10.55;;
34521;SDS011;25561;48.888;8.736;2023-02-28T13:05:58;15.13;;;9.25;;
34521;SDS011;25561;48.888;8.736;2023-02-28T13:09:18;21.80;;;11.18;;
34521;SDS011;25561;48.888;8.736;2023-02-28T13:12:21;22.10;;;10.70;;
34521;SDS011;25561;48.888;8.736;2023-02-28T13:15:24;18.05;;;9.80;;
34521;SDS011;25561;48.888;8.736;2023-02-28T13:21:35;18.42;;;10.80;;
34521;SDS011;25561;48.888;8.736;2023-02-28T13:27:53;19.15;;;9.63;;
34521;SDS011;25561;48.888;8.736;2023-02-28T13:34:06;19.88;;;10.50;;
34521;SDS011;25561;48.888;8.736;2023-02-28T13:40:30;18.73;;;10.02;;
34521;SDS011;25561;48.888;8.736;2023-02-28T13:47:20;23.30;;;10.48;;
34521;SDS011;25561;48.888;8.736;2023-02-28T13:53:46;20.02;;;10.10;;
34521;SDS011;25561;48.888;8.736;2023-02-28T13:57:11;22.67;;;11.18;;
34521;SDS011;25561;48.888;8.736;2023-02-28T14:07:23;19.40;;;9.82;;
34521;SDS011;25561;48.888;8.736;2023-02-28T14:10:46;18.38;;;10.77;;
34521;SDS011;25561;48.888;8.736;2023-02-28T14:13:49;17.52;;;10.57;;
34521;SDS011;25561;48.888;8.736;2023-02-28T14:21:28;17.52;;;10.40;;
34521;SDS011;25561;48.888;8.736;2023-02-28T14:31:34;20.58;;;11.15;;
34521;SDS011;25561;48.888;8.736;2023-02-28T14:38:06;18.65;;;10.80;;
34521;SDS011;25561;48.888;8.736;2023-02-28T14:41:16;23.60;;;11.18;;
34521;SDS011;25561;48.888;8.736;2023-02-28T14:44:27;21.65;;;10.07;;
34521;SDS011;25561;48.888;8.736;2023-02-28T14:47:32;26.63;;;10.55;;
34521;SDS011;25561;48.888;8.736;2023-02-28T14:50:36;20.42;;;10.65;;
34521;SDS011;25561;48.888;8.736;2023-02-28T14:53:39;22.35;;;10.98;;
34521;SDS011;25561;48.888;8.736;2023-02-28T14:56:48;22.67;;;11.23;;
34521;SDS011;25561;48.888;8.736;2023-02-28T14:59:59;18.20;;;10.65;;
34521;SDS011;25561;48.888;8.736;2023-02-28T15:03:18;20.65;;;11.07;;
34521;SDS011;25561;48.888;8.736;2023-02-28T15:06:26;21.90;;;10.77;;
34521;SDS011;25561;48.888;8.736;2023-02-28T15:09:31;22.90;;;11.55;;
34521;SDS011;25561;48.888;8.736;2023-02-28T15:12:33;22.73;;;12.18;;
34521;SDS011;25561;48.888;8.736;2023-02-28T15:15:41;20.23;;;11.65;;
34521;SDS011;25561;48.888;8.736;2023-02-28T15:18:59;20.73;;;11.27;;
34521;SDS011;25561;48.888;8.736;2023-02-28T15:22:10;25.20;;;11.05;;
34521;SDS011;25561;48.888;8.736;2023-02-28T15:25:18;25.15;;;11.32;;
34521;SDS011;25561;48.888;8.736;2023-02-28T15:28:22;24.10;;;11.93;;
34521;SDS011;25561;48.888;8.736;2023-02-28T15:31:27;22.08;;;12.18;;
34521;SDS011;25561;48.888;8.736;2023-02-28T15:34:40;23.65;;;11.95;;
34521;SDS011;25561;48.888;8.736;2023-02-28T15:37:51;23.42;;;12.32;;
34521;SDS011;25561;48.888;8.736;2023-02-28T15:40:55;24.00;;;13.25;;
34521;SDS011;25561;48.888;8.736;2023-02-28T15:47:29;28.33;;;12.32;;
34521;SDS011;25561;48.888;8.736;2023-02-28T15:50:31;24.30;;;12.65;;
34521;SDS011;25561;48.888;8.736;2023-02-28T15:53:35;19.60;;;11.30;;
34521;SDS011;25561;48.888;8.736;2023-02-28T15:56:52;23.27;;;11.55;;
34521;SDS011;25561;48.888;8.736;2023-02-28T15:59:57;25.25;;;11.95;;
34521;SDS011;25561;48.888;8.736;2023-02-28T16:03:21;26.45;;;12.30;;
34521;SDS011;25561;48.888;8.736;2023-02-28T16:06:26;23.70;;;12.07;;
34521;SDS011;25561;48.888;8.736;2023-02-28T16:09:41;21.27;;;12.13;;
34521;SDS011;25561;48.888;8.736;2023-02-28T16:12:43;20.63;;;11.82;;
34521;SDS011;25561;48.888;8.736;2023-02-28T16:15:45;21.02;;;11.88;;
34521;SDS011;25561;48.888;8.736;2023-02-28T16:18:47;20.63;;;11.75;;
34521;SDS011;25561;48.888;8.736;2023-02-28T16:21:49;21.38;;;10.65;;
34521;SDS011;25561;48.888;8.736;2023-02-28T16:24:50;18.65;;;10.52;;
34521;SDS011;25561;48.888;8.736;2023-02-28T16:27:53;24.13;;;10.90;;
34521;SDS011;25561;48.888;8.736;2023-02-28T16:30:56;23.85;;;11.93;;
34521;SDS011;25561;48.888;8.736;2023-02-28T16:33:58;23.50;;;11.70;;
34521;SDS011;25561;48.888;8.736;2023-02-28T16:36:59;22.20;;;11.30;;
34521;SDS011;25561;48.888;8.736;2023-02-28T16:40:02;21.52;;;11.90;;
34521;SDS011;25561;48.888;8.736;2023-02-28T16:43:07;21.92;;;12.60;;
34521;SDS011;25561;48.888;8.736;2023-02-28T16:46:18;30.08;;;12.32;;
34521;SDS011;25561;48.888;8.736;2023-02-28T16:49:21;22.35;;;11.73;;
34521;SDS011;25561;48.888;8.736;2023-02-28T16:52:23;23.45;;;11.85;;
34521;SDS011;25561;48.888;8.736;2023-02-28T16:55:25;25.40;;;12.48;;
34521;SDS011;25561;48.888;8.736;2023-02-28T16:58:27;23.23;;;11.30;;
